createdAt,value
2019-02-26T00:01:46.183Z,7.05
2019-02-26T00:04:13.329Z,6.40
2019-02-26T00:06:42.466Z,6.85
2019-02-26T00:09:13.237Z,7.28
2019-02-26T00:11:42.295Z,8.00
2019-02-26T00:14:15.523Z,7.12
2019-02-26T00:16:42.415Z,8.18
2019-02-26T00:19:14.394Z,6.85
2019-02-26T00:21:45.678Z,7.22
2019-02-26T00:24:14.625Z,6.60
2019-02-26T00:26:45.673Z,6.90
2019-02-26T00:29:14.765Z,6.47
2019-02-26T00:31:46.090Z,6.37
2019-02-26T00:34:16.872Z,6.28
2019-02-26T00:36:45.377Z,6.62
2019-02-26T00:39:14.607Z,5.95
2019-02-26T00:41:43.713Z,6.05
2019-02-26T00:44:12.777Z,6.75
2019-02-26T00:46:41.736Z,6.58
2019-02-26T00:49:10.780Z,6.47
2019-02-26T00:51:41.738Z,7.47
2019-02-26T00:54:11.011Z,6.70
2019-02-26T00:56:41.110Z,7.05
2019-02-26T00:59:10.429Z,6.65
2019-02-26T01:01:39.630Z,6.15
2019-02-26T01:04:08.612Z,6.62
2019-02-26T01:06:39.076Z,6.97
2019-02-26T01:09:11.242Z,6.42
2019-02-26T01:11:40.481Z,6.67
2019-02-26T01:14:09.692Z,6.70
2019-02-26T01:16:39.449Z,6.62
2019-02-26T01:19:10.763Z,6.58
2019-02-26T01:21:39.688Z,7.17
2019-02-26T01:24:08.769Z,6.70
2019-02-26T01:26:37.693Z,6.45
2019-02-26T01:29:16.384Z,6.08
2019-02-26T01:31:44.600Z,6.03
2019-02-26T01:34:15.458Z,6.85
2019-02-26T01:36:44.975Z,6.70
2019-02-26T01:39:18.612Z,6.33
2019-02-26T01:41:47.916Z,6.53
2019-02-26T01:44:17.885Z,6.70
2019-02-26T01:46:47.062Z,7.28
2019-02-26T01:49:17.132Z,7.15
2019-02-26T01:51:47.969Z,7.40
2019-02-26T01:54:18.532Z,7.22
2019-02-26T01:56:48.133Z,7.10
2019-02-26T01:59:18.995Z,7.05
2019-02-26T02:01:51.393Z,7.50
2019-02-26T02:04:20.004Z,7.30
2019-02-26T02:06:49.029Z,7.10
2019-02-26T02:09:20.425Z,7.15
2019-02-26T02:11:50.612Z,6.62
2019-02-26T02:14:19.812Z,6.87
2019-02-26T02:16:49.056Z,6.67
2019-02-26T02:19:20.267Z,7.22
2019-02-26T02:21:49.406Z,6.95
2019-02-26T02:24:20.546Z,7.87
2019-02-26T02:26:55.354Z,6.80
2019-02-26T02:29:24.645Z,7.42
2019-02-26T02:31:54.863Z,6.62
2019-02-26T02:34:26.992Z,7.40
2019-02-26T02:37:00.431Z,6.62
2019-02-26T02:39:30.897Z,7.40
2019-02-26T02:42:01.915Z,7.10
2019-02-26T02:44:32.598Z,6.15
2019-02-26T02:47:03.703Z,7.37
2019-02-26T02:49:33.857Z,6.75
2019-02-26T02:52:04.289Z,7.03
2019-02-26T02:54:33.674Z,7.33
2019-02-26T02:57:04.844Z,7.20
2019-02-26T02:59:37.355Z,7.45
2019-02-26T03:02:04.795Z,7.45
2019-02-26T03:04:35.077Z,6.80
2019-02-26T03:07:04.185Z,7.40
2019-02-26T03:09:37.059Z,7.53
2019-02-26T03:12:04.185Z,7.53
2019-02-26T03:14:35.803Z,8.00
2019-02-26T03:17:06.426Z,7.80
2019-02-26T03:19:35.664Z,7.75
2019-02-26T03:22:07.290Z,7.20
2019-02-26T03:24:36.443Z,7.40
2019-02-26T03:27:05.625Z,7.53
2019-02-26T03:29:34.679Z,7.80
2019-02-26T03:32:03.598Z,7.75
2019-02-26T03:34:32.564Z,7.08
2019-02-26T03:37:03.881Z,7.55
2019-02-26T03:39:32.702Z,7.05
2019-02-26T03:42:02.081Z,7.62
2019-02-26T03:44:31.433Z,7.65
2019-02-26T03:47:00.431Z,7.42
2019-02-26T03:49:29.522Z,6.97
2019-02-26T03:52:00.131Z,7.85
2019-02-26T03:54:29.409Z,7.42
2019-02-26T03:56:58.411Z,7.55
2019-02-26T03:59:30.422Z,7.40
2019-02-26T04:01:59.560Z,7.37
2019-02-26T04:04:31.182Z,6.83
2019-02-26T04:07:01.453Z,7.30
2019-02-26T04:09:30.183Z,6.72
2019-02-26T04:11:59.117Z,7.95
2019-02-26T04:14:30.504Z,7.37
2019-02-26T04:17:01.494Z,6.92
2019-02-26T04:19:29.540Z,7.37
2019-02-26T04:22:26.585Z,7.95
2019-02-26T04:25:04.962Z,7.20
2019-02-26T04:27:47.335Z,7.00
2019-02-26T04:30:52.816Z,7.05
2019-02-26T04:33:41.469Z,6.83
2019-02-26T04:36:28.909Z,7.95
2019-02-26T04:39:28.252Z,7.20
2019-02-26T04:42:08.472Z,7.12
2019-02-26T04:45:05.871Z,8.20
2019-02-26T04:47:57.594Z,7.40
2019-02-26T04:50:28.686Z,7.05
2019-02-26T04:52:59.748Z,7.47
2019-02-26T04:55:29.787Z,7.65
2019-02-26T04:57:58.642Z,7.85
2019-02-26T05:00:29.916Z,8.20
2019-02-26T05:02:58.599Z,8.40
2019-02-26T05:05:31.014Z,7.25
2019-02-26T05:07:58.458Z,7.37
2019-02-26T05:10:29.738Z,7.22
2019-02-26T05:13:01.059Z,7.65
2019-02-26T05:15:32.490Z,7.75
2019-02-26T05:17:59.789Z,7.47
2019-02-26T05:20:31.264Z,7.97
2019-02-26T05:23:00.992Z,8.50
2019-02-26T05:25:31.531Z,7.75
2019-02-26T05:28:03.667Z,8.13
2019-02-26T05:30:31.827Z,7.95
2019-02-26T05:33:02.951Z,8.58
2019-02-26T05:35:31.847Z,7.50
2019-02-26T05:38:03.385Z,8.80
2019-02-26T05:40:31.447Z,8.30
2019-02-26T05:43:01.885Z,7.80
2019-02-26T05:45:33.059Z,7.83
2019-02-26T05:48:02.171Z,7.83
2019-02-26T05:50:34.680Z,8.35
2019-02-26T05:53:04.935Z,8.65
2019-02-26T05:55:32.771Z,9.98
2019-02-26T05:58:01.767Z,8.80
2019-02-26T06:00:33.333Z,9.20
2019-02-26T06:03:03.605Z,9.10
2019-02-26T06:05:32.955Z,8.98
2019-02-26T06:08:02.079Z,9.10
2019-02-26T06:10:32.621Z,8.40
2019-02-26T06:13:02.780Z,8.63
2019-02-26T06:15:34.187Z,9.05
2019-02-26T06:18:03.308Z,9.13
2019-02-26T06:20:34.531Z,9.65
2019-02-26T06:23:03.470Z,9.70
2019-02-26T06:25:32.630Z,10.32
2019-02-26T06:28:04.455Z,10.15
2019-02-26T06:30:32.541Z,10.70
2019-02-26T06:33:04.133Z,10.08
2019-02-26T06:35:33.684Z,11.08
2019-02-26T06:38:04.519Z,11.40
2019-02-26T06:40:36.731Z,10.78
2019-02-26T06:43:04.615Z,11.90
2019-02-26T06:45:35.178Z,9.65
2019-02-26T06:48:04.446Z,9.50
2019-02-26T06:50:34.095Z,10.10
2019-02-26T06:53:06.497Z,11.12
2019-02-26T06:55:35.261Z,12.10
2019-02-26T06:58:22.280Z,10.88
2019-02-26T07:00:55.134Z,12.05
2019-02-26T07:03:24.229Z,11.48
2019-02-26T07:05:53.301Z,11.12
2019-02-26T07:08:24.241Z,11.65
2019-02-26T07:10:53.080Z,11.90
2019-02-26T07:13:22.082Z,12.55
2019-02-26T07:15:51.170Z,12.53
2019-02-26T07:18:20.323Z,12.68
2019-02-26T07:20:52.041Z,11.43
2019-02-26T07:23:20.107Z,12.43
2019-02-26T07:25:49.279Z,14.38
2019-02-26T07:28:20.045Z,14.95
2019-02-26T07:30:49.031Z,14.33
2019-02-26T07:33:18.081Z,14.13
2019-02-26T07:35:47.038Z,15.88
2019-02-26T07:38:18.008Z,13.00
2019-02-26T07:40:46.797Z,12.60
2019-02-26T07:43:17.953Z,12.43
2019-02-26T07:45:46.584Z,11.73
2019-02-26T07:48:18.613Z,10.63
2019-02-26T07:50:48.352Z,11.57
2019-02-26T07:53:19.650Z,11.70
2019-02-26T07:55:47.909Z,11.45
2019-02-26T07:58:17.846Z,10.85
2019-02-26T08:00:49.515Z,11.28
2019-02-26T08:03:19.428Z,11.08
2019-02-26T08:05:48.752Z,10.45
2019-02-26T08:08:20.612Z,11.45
2019-02-26T08:10:50.626Z,10.50
2019-02-26T08:13:19.171Z,11.05
2019-02-26T08:15:48.126Z,11.45
2019-02-26T08:18:17.291Z,11.25
2019-02-26T08:20:46.417Z,11.75
2019-02-26T08:23:17.109Z,11.55
2019-02-26T08:25:46.588Z,10.78
2019-02-26T08:28:17.926Z,11.93
2019-02-26T08:30:47.385Z,12.10
2019-02-26T08:33:17.812Z,12.85
2019-02-26T08:35:46.965Z,10.72
2019-02-26T08:38:16.368Z,11.53
2019-02-26T08:40:45.759Z,13.38
2019-02-26T08:43:15.292Z,13.58
2019-02-26T08:45:44.345Z,13.58
2019-02-26T08:48:15.022Z,13.53
2019-02-26T08:50:46.204Z,12.95
2019-02-26T08:53:14.833Z,12.98
2019-02-26T08:55:43.800Z,12.23
2019-02-26T08:58:12.819Z,12.65
2019-02-26T09:00:41.857Z,12.55
2019-02-26T09:03:13.238Z,11.95
2019-02-26T09:05:41.777Z,11.20
2019-02-26T09:08:13.250Z,12.10
2019-02-26T09:10:43.742Z,12.03
2019-02-26T09:13:14.553Z,12.70
2019-02-26T09:15:43.433Z,12.65
2019-02-26T09:18:12.398Z,12.15
2019-02-26T09:20:41.413Z,11.83
2019-02-26T09:23:10.641Z,12.82
2019-02-26T09:25:39.777Z,12.07
2019-02-26T09:28:08.822Z,12.73
2019-02-26T09:30:38.859Z,11.60
2019-02-26T09:33:10.921Z,11.20
2019-02-26T09:35:39.252Z,10.95
2019-02-26T09:38:08.495Z,10.75
2019-02-26T09:40:37.446Z,10.05
2019-02-26T09:43:06.540Z,10.32
2019-02-26T09:45:35.516Z,10.28
2019-02-26T09:48:04.781Z,10.90
2019-02-26T09:50:36.725Z,10.93
2019-02-26T09:53:05.885Z,10.45
2019-02-26T09:55:39.640Z,9.45
2019-02-26T09:58:08.616Z,10.18
2019-02-26T10:00:37.699Z,10.85
2019-02-26T10:03:09.811Z,10.72
2019-02-26T10:05:37.616Z,10.25
2019-02-26T10:08:06.622Z,10.88
2019-02-26T10:10:39.173Z,11.00
2019-02-26T10:13:06.700Z,11.12
2019-02-26T10:15:37.386Z,9.78
2019-02-26T10:18:08.823Z,10.93
2019-02-26T10:20:37.116Z,10.43
2019-02-26T10:23:06.455Z,10.50
2019-02-26T10:25:38.541Z,11.33
2019-02-26T10:28:09.612Z,10.68
2019-02-26T10:30:40.971Z,10.95
2019-02-26T10:33:08.451Z,10.95
2019-02-26T10:35:39.703Z,11.57
2019-02-26T10:38:11.439Z,12.60
2019-02-26T10:40:50.546Z,11.43
2019-02-26T10:43:09.972Z,11.78
2019-02-26T10:45:41.555Z,11.08
2019-02-26T10:48:09.873Z,10.90
2019-02-26T10:50:41.945Z,11.25
2019-02-26T10:53:13.551Z,10.25
2019-02-26T10:55:43.577Z,10.32
2019-02-26T10:58:13.325Z,10.63
2019-02-26T11:00:43.400Z,10.58
2019-02-26T11:03:14.831Z,11.00
2019-02-26T11:05:45.281Z,11.60
2019-02-26T11:08:14.045Z,11.45
2019-02-26T11:10:52.396Z,10.55
2019-02-26T11:13:50.975Z,11.08
2019-02-26T11:16:45.118Z,9.20
2019-02-26T11:22:39.222Z,9.90
2019-02-26T11:25:14.162Z,9.75
2019-02-26T11:27:45.996Z,9.10
2019-02-26T11:30:23.697Z,9.78
2019-02-26T11:32:56.168Z,8.88
2019-02-26T11:35:24.624Z,9.60
2019-02-26T11:37:55.417Z,9.33
2019-02-26T11:40:28.069Z,9.45
2019-02-26T11:42:56.553Z,10.72
2019-02-26T11:45:25.653Z,10.45
2019-02-26T11:47:55.774Z,10.23
2019-02-26T11:50:28.214Z,9.78
2019-02-26T11:52:57.554Z,10.08
2019-02-26T11:55:31.354Z,9.03
2019-02-26T11:57:57.742Z,9.23
2019-02-26T12:00:39.184Z,9.20
2019-02-26T12:03:07.193Z,9.68
2019-02-26T12:05:38.884Z,8.33
2019-02-26T12:08:07.383Z,7.33
2019-02-26T12:10:37.952Z,7.97
2019-02-26T12:13:07.549Z,9.33
2019-02-26T12:15:39.901Z,7.97
2019-02-26T12:18:07.451Z,8.85
2019-02-26T12:20:38.486Z,7.65
2019-02-26T12:23:08.085Z,8.75
2019-02-26T12:25:38.652Z,8.15
2019-02-26T12:28:10.904Z,8.05
2019-02-26T12:30:41.218Z,8.10
2019-02-26T12:33:12.179Z,7.97
2019-02-26T12:35:40.835Z,7.87
2019-02-26T12:38:18.294Z,7.97
2019-02-26T12:40:46.289Z,7.20
2019-02-26T12:43:16.280Z,8.03
2019-02-26T12:45:43.451Z,6.72
2019-02-26T12:48:15.660Z,7.12
2019-02-26T12:50:43.408Z,6.90
2019-02-26T12:53:15.109Z,6.22
2019-02-26T12:55:43.149Z,6.92
2019-02-26T12:58:15.221Z,6.35
2019-02-26T13:00:43.384Z,5.83
2019-02-26T13:03:15.901Z,6.80
2019-02-26T13:05:45.588Z,7.55
2019-02-26T13:08:17.186Z,6.75
2019-02-26T13:10:47.360Z,7.12
2019-02-26T13:13:16.677Z,8.03
2019-02-26T13:15:46.009Z,7.97
2019-02-26T13:18:15.247Z,8.48
2019-02-26T13:20:44.510Z,8.73
2019-02-26T13:23:20.106Z,9.10
2019-02-26T13:25:47.669Z,9.13
2019-02-26T13:28:16.901Z,9.20
2019-02-26T13:30:46.024Z,9.08
2019-02-26T13:33:17.831Z,9.00
2019-02-26T13:35:50.742Z,9.03
2019-02-26T13:38:17.131Z,9.55
2019-02-26T13:40:46.569Z,9.25
2019-02-26T13:43:15.626Z,9.40
2019-02-26T13:45:45.222Z,7.83
2019-02-26T13:48:14.961Z,8.53
2019-02-26T13:50:44.161Z,8.88
2019-02-26T13:53:13.612Z,8.18
2019-02-26T13:55:42.717Z,7.37
2019-02-26T13:59:09.463Z,9.08
2019-02-26T14:00:43.008Z,8.40
2019-02-26T14:03:12.637Z,7.83
2019-02-26T14:05:41.591Z,7.80
2019-02-26T14:08:10.713Z,7.53
2019-02-26T14:10:39.896Z,8.10
2019-02-26T14:13:08.962Z,8.28
2019-02-26T14:15:38.249Z,8.30
2019-02-26T14:18:07.549Z,8.43
2019-02-26T14:20:36.560Z,8.58
2019-02-26T14:23:05.557Z,9.05
2019-02-26T14:25:34.502Z,8.90
2019-02-26T14:28:03.511Z,8.88
2019-02-26T14:30:32.660Z,8.75
2019-02-26T14:33:01.686Z,9.55
2019-02-26T14:35:30.740Z,8.98
2019-02-26T14:37:59.732Z,9.65
2019-02-26T14:40:28.825Z,10.00
2019-02-26T14:42:57.852Z,9.35
2019-02-26T14:45:29.971Z,9.83
2019-02-26T14:47:59.239Z,10.03
2019-02-26T14:50:28.481Z,9.25
2019-02-26T14:52:59.303Z,8.98
2019-02-26T14:55:30.128Z,8.83
2019-02-26T14:57:59.109Z,9.40
2019-02-26T15:00:30.686Z,8.88
2019-02-26T15:02:59.707Z,9.53
2019-02-26T15:05:28.787Z,9.88
2019-02-26T15:07:57.961Z,9.00
2019-02-26T15:10:27.060Z,9.80
2019-02-26T15:13:35.995Z,9.58
2019-02-26T15:16:05.147Z,10.75
2019-02-26T15:18:35.799Z,10.30
2019-02-26T15:21:05.024Z,10.45
2019-02-26T15:23:34.145Z,10.30
2019-02-26T15:26:03.313Z,9.38
2019-02-26T15:28:32.353Z,10.40
2019-02-26T15:31:01.359Z,10.18
2019-02-26T15:33:30.661Z,10.40
2019-02-26T15:35:59.723Z,10.53
2019-02-26T15:38:28.670Z,9.90
2019-02-26T15:40:57.712Z,10.60
2019-02-26T15:43:26.708Z,11.30
2019-02-26T15:45:57.749Z,10.82
2019-02-26T15:48:26.491Z,11.63
2019-02-26T15:50:55.516Z,10.65
2019-02-26T15:53:24.882Z,12.68
2019-02-26T15:55:54.102Z,11.40
2019-02-26T15:58:23.287Z,11.60
2019-02-26T16:00:52.508Z,10.95
2019-02-26T16:03:21.764Z,11.80
2019-02-26T16:05:51.082Z,11.60
2019-02-26T16:08:20.118Z,11.10
2019-02-26T16:10:49.414Z,10.45
2019-02-26T16:13:18.527Z,11.93
2019-02-26T16:15:47.727Z,11.35
2019-02-26T16:18:17.053Z,11.60
2019-02-26T16:20:46.481Z,11.55
2019-02-26T16:23:15.536Z,12.20
2019-02-26T16:25:44.484Z,11.30
2019-02-26T16:28:13.469Z,12.47
2019-02-26T16:30:42.740Z,11.18
2019-02-26T16:33:13.672Z,10.85
2019-02-26T16:35:42.693Z,12.05
2019-02-26T16:38:13.896Z,11.75
2019-02-26T16:40:42.521Z,11.25
2019-02-26T16:43:11.830Z,11.80
2019-02-26T16:45:40.980Z,13.33
2019-02-26T16:48:10.069Z,12.53
2019-02-26T16:50:39.424Z,11.12
2019-02-26T16:53:08.657Z,12.88
2019-02-26T16:55:37.787Z,11.78
2019-02-26T16:58:07.129Z,12.37
2019-02-26T17:00:36.409Z,11.50
2019-02-26T17:03:05.820Z,11.25
2019-02-26T17:05:35.119Z,11.50
2019-02-26T17:08:04.205Z,11.88
2019-02-26T17:10:33.575Z,13.22
2019-02-26T17:13:03.118Z,11.68
2019-02-26T17:15:33.498Z,12.63
2019-02-26T17:18:02.773Z,12.60
2019-02-26T17:20:31.821Z,12.05
2019-02-26T17:23:00.853Z,11.40
2019-02-26T17:25:30.067Z,11.80
2019-02-26T17:27:59.151Z,11.85
2019-02-26T17:30:28.378Z,11.80
2019-02-26T17:32:57.535Z,12.40
2019-02-26T17:35:28.990Z,11.40
2019-02-26T17:37:57.497Z,11.20
2019-02-26T17:40:27.333Z,11.88
2019-02-26T17:42:56.378Z,12.18
2019-02-26T17:45:34.922Z,13.05
2019-02-26T17:48:05.585Z,11.50
2019-02-26T17:50:39.596Z,13.03
2019-02-26T17:53:08.857Z,12.95
2019-02-26T17:55:38.082Z,11.97
2019-02-26T17:58:09.790Z,14.13
2019-02-26T18:00:39.572Z,13.30
2019-02-26T18:03:08.884Z,12.35
2019-02-26T18:05:50.459Z,12.82
2019-02-26T18:08:08.921Z,12.73
2019-02-26T18:10:39.107Z,14.40
2019-02-26T18:13:08.152Z,13.30
2019-02-26T18:15:37.266Z,13.38
2019-02-26T18:18:06.607Z,14.65
2019-02-26T18:20:35.688Z,15.10
2019-02-26T18:23:04.992Z,14.45
2019-02-26T18:25:34.076Z,12.85
2019-02-26T18:28:03.204Z,14.65
2019-02-26T18:30:32.254Z,13.95
2019-02-26T18:33:01.289Z,14.40
2019-02-26T18:35:30.513Z,13.60
2019-02-26T18:37:59.549Z,14.20
2019-02-26T18:40:29.051Z,13.72
2019-02-26T18:42:58.238Z,13.55
2019-02-26T18:45:31.266Z,13.30
2019-02-26T18:48:00.358Z,13.43
2019-02-26T18:50:29.674Z,13.98
2019-02-26T18:52:59.007Z,14.78
2019-02-26T18:55:32.297Z,13.65
2019-02-26T18:57:59.399Z,13.45
2019-02-26T19:00:32.711Z,14.58
2019-02-26T19:03:01.814Z,14.70
2019-02-26T19:05:31.155Z,14.25
2019-02-26T19:08:00.846Z,14.05
2019-02-26T19:10:29.832Z,14.93
2019-02-26T19:13:02.426Z,15.20
2019-02-26T19:15:31.718Z,15.75
2019-02-26T19:18:02.660Z,15.13
2019-02-26T19:20:39.414Z,15.85
2019-02-26T19:23:08.749Z,15.58
2019-02-26T19:25:41.389Z,15.75
2019-02-26T19:28:09.872Z,15.88
2019-02-26T19:30:39.248Z,15.15
2019-02-26T19:33:08.234Z,15.85
2019-02-26T19:35:40.294Z,15.60
2019-02-26T19:38:08.603Z,17.50
2019-02-26T19:40:43.523Z,16.20
2019-02-26T19:43:12.701Z,16.55
2019-02-26T19:45:44.251Z,16.15
2019-02-26T19:48:12.711Z,16.70
2019-02-26T19:50:45.630Z,17.67
2019-02-26T19:53:12.555Z,16.87
2019-02-26T19:55:43.959Z,16.73
2019-02-26T19:58:13.074Z,17.25
2019-02-26T20:00:42.252Z,17.27
2019-02-26T20:03:11.393Z,18.85
2019-02-26T20:05:41.261Z,16.73
2019-02-26T20:08:10.566Z,18.65
2019-02-26T20:10:39.579Z,17.60
2019-02-26T20:13:12.457Z,18.35
2019-02-26T20:15:39.863Z,17.92
2019-02-26T20:18:19.770Z,17.67
2019-02-26T20:20:41.083Z,18.07
2019-02-26T20:23:10.982Z,17.70
2019-02-26T20:25:42.476Z,17.15
2019-02-26T20:28:11.473Z,17.95
2019-02-26T20:30:40.572Z,17.98
2019-02-26T20:33:09.678Z,19.80
2019-02-26T20:35:38.697Z,18.07
2019-02-26T20:38:07.815Z,18.60
2019-02-26T20:40:37.485Z,19.05
2019-02-26T20:43:06.667Z,18.62
2019-02-26T20:45:35.836Z,19.15
2019-02-26T20:48:05.205Z,18.57
2019-02-26T20:50:34.439Z,19.80
2019-02-26T20:53:05.663Z,18.48
2019-02-26T20:55:34.324Z,20.10
2019-02-26T20:58:03.332Z,22.95
2019-02-26T21:00:32.377Z,19.25
2019-02-26T21:03:01.408Z,20.88
2019-02-26T21:05:30.446Z,21.10
2019-02-26T21:07:59.520Z,18.70
2019-02-26T21:10:28.628Z,20.23
2019-02-26T21:13:01.641Z,20.15
2019-02-26T21:15:28.553Z,19.27
2019-02-26T21:17:58.210Z,19.87
2019-02-26T21:20:27.949Z,18.30
2019-02-26T21:22:57.102Z,16.95
2019-02-26T21:25:26.324Z,17.90
2019-02-26T21:27:55.595Z,17.45
2019-02-26T21:30:25.443Z,18.85
2019-02-26T21:32:57.837Z,18.82
2019-02-26T21:35:25.256Z,19.02
2019-02-26T21:37:54.374Z,18.55
2019-02-26T21:40:23.674Z,18.70
2019-02-26T21:42:52.668Z,18.55
2019-02-26T21:45:21.647Z,18.73
2019-02-26T21:47:50.666Z,17.87
2019-02-26T21:50:22.086Z,18.52
2019-02-26T21:53:05.797Z,18.40
2019-02-26T21:55:21.048Z,19.10
2019-02-26T21:57:50.190Z,18.62
2019-02-26T22:00:21.032Z,17.82
2019-02-26T22:02:52.419Z,19.20
2019-02-26T22:05:20.919Z,19.82
2019-02-26T22:07:52.392Z,19.45
2019-02-26T22:10:21.885Z,20.97
2019-02-26T22:12:56.628Z,18.75
2019-02-26T22:15:24.490Z,19.00
2019-02-26T22:17:57.834Z,19.57
2019-02-26T22:20:35.811Z,19.52
2019-02-26T22:22:55.139Z,20.15
2019-02-26T22:25:24.225Z,17.67
2019-02-26T22:27:53.584Z,18.60
2019-02-26T22:30:22.950Z,18.12
2019-02-26T22:32:51.971Z,18.27
2019-02-26T22:35:25.656Z,18.10
2019-02-26T22:37:52.337Z,18.25
2019-02-26T22:40:22.834Z,19.00
2019-02-26T22:42:52.318Z,16.40
2019-02-26T22:45:22.280Z,17.37
2019-02-26T22:47:51.558Z,17.42
2019-02-26T22:50:20.560Z,16.93
2019-02-26T22:52:49.629Z,16.12
2019-02-26T22:55:18.734Z,16.65
2019-02-26T22:57:48.900Z,15.85
2019-02-26T23:00:54.581Z,17.07
2019-02-26T23:03:23.873Z,16.02
2019-02-26T23:05:52.979Z,16.12
2019-02-26T23:08:22.107Z,16.30
2019-02-26T23:10:51.469Z,16.35
2019-02-26T23:13:21.004Z,15.85
2019-02-26T23:15:50.402Z,16.52
2019-02-26T23:18:20.310Z,16.20
2019-02-26T23:20:49.442Z,17.10
2019-02-26T23:23:21.688Z,16.62
2019-02-26T23:25:49.583Z,15.70
2019-02-26T23:28:21.671Z,15.45
2019-02-26T23:30:49.413Z,16.73
2019-02-26T23:33:18.701Z,16.05
2019-02-26T23:35:47.782Z,15.95
2019-02-26T23:38:16.730Z,15.35
2019-02-26T23:40:45.872Z,15.72
2019-02-26T23:43:14.964Z,15.45
2019-02-26T23:45:47.433Z,15.53
2019-02-26T23:48:16.538Z,15.68
2019-02-26T23:50:47.301Z,14.95
2019-02-26T23:53:16.812Z,14.80
2019-02-26T23:55:47.262Z,14.98
2019-02-26T23:58:17.022Z,15.60
